sensor_id;sensor_type;location;lat;lon;timestamp;P1;durP1;ratioP1;P2;durP2;ratioP2
47161;SDS011;32921;53.256;8.198;2024-03-23T00:55:54;132.60;;;124.38;;
47161;SDS011;32921;53.256;8.198;2024-03-23T00:58:19;136.93;;;128.30;;
47161;SDS011;32921;53.256;8.198;2024-03-23T01:00:45;127.75;;;119.82;;
47161;SDS011;32921;53.256;8.198;2024-03-23T01:03:10;137.02;;;128.02;;
47161;SDS011;32921;53.256;8.198;2024-03-23T01:05:36;134.02;;;125.63;;
47161;SDS011;32921;53.256;8.198;2024-03-23T01:08:02;134.00;;;125.60;;
47161;SDS011;32921;53.256;8.198;2024-03-23T01:10:27;123.00;;;115.32;;
47161;SDS011;32921;53.256;8.198;2024-03-23T01:12:53;130.73;;;122.35;;
47161;SDS011;32921;53.256;8.198;2024-03-23T01:15:18;128.10;;;120.13;;
47161;SDS011;32921;53.256;8.198;2024-03-23T01:17:44;131.18;;;123.00;;
47161;SDS011;32921;53.256;8.198;2024-03-23T01:20:10;139.98;;;129.90;;
47161;SDS011;32921;53.256;8.198;2024-03-23T01:22:35;127.93;;;119.93;;
47161;SDS011;32921;53.256;8.198;2024-03-23T01:25:01;132.60;;;124.40;;
47161;SDS011;32921;53.256;8.198;2024-03-23T01:27:27;141.18;;;132.10;;
47161;SDS011;32921;53.256;8.198;2024-03-23T01:29:52;128.50;;;120.47;;
47161;SDS011;32921;53.256;8.198;2024-03-23T01:32:18;136.27;;;127.63;;
47161;SDS011;32921;53.256;8.198;2024-03-23T01:34:44;137.70;;;129.00;;
47161;SDS011;32921;53.256;8.198;2024-03-23T01:37:10;134.88;;;126.10;;
47161;SDS011;32921;53.256;8.198;2024-03-23T01:39:35;127.15;;;119.10;;
47161;SDS011;32921;53.256;8.198;2024-03-23T01:42:01;125.15;;;117.32;;
47161;SDS011;32921;53.256;8.198;2024-03-23T01:44:27;133.70;;;125.25;;
47161;SDS011;32921;53.256;8.198;2024-03-23T01:46:53;143.80;;;134.48;;
47161;SDS011;32921;53.256;8.198;2024-03-23T01:49:18;135.63;;;126.40;;
47161;SDS011;32921;53.256;8.198;2024-03-23T01:51:45;129.50;;;120.88;;
47161;SDS011;32921;53.256;8.198;2024-03-23T01:54:10;136.60;;;127.78;;
47161;SDS011;32921;53.256;8.198;2024-03-23T01:56:36;127.13;;;119.13;;
47161;SDS011;32921;53.256;8.198;2024-03-23T01:59:02;126.88;;;118.60;;
47161;SDS011;32921;53.256;8.198;2024-03-23T02:01:28;128.02;;;119.78;;
47161;SDS011;32921;53.256;8.198;2024-03-23T02:03:54;127.90;;;119.80;;
47161;SDS011;32921;53.256;8.198;2024-03-23T02:06:19;123.28;;;115.13;;
47161;SDS011;32921;53.256;8.198;2024-03-23T02:08:47;131.20;;;122.53;;
47161;SDS011;32921;53.256;8.198;2024-03-23T02:11:13;118.75;;;111.22;;
47161;SDS011;32921;53.256;8.198;2024-03-23T02:13:39;127.97;;;119.80;;
47161;SDS011;32921;53.256;8.198;2024-03-23T02:16:05;136.27;;;127.47;;
47161;SDS011;32921;53.256;8.198;2024-03-23T02:18:31;132.80;;;124.20;;
47161;SDS011;32921;53.256;8.198;2024-03-23T02:20:57;124.88;;;116.55;;
47161;SDS011;32921;53.256;8.198;2024-03-23T02:23:23;126.28;;;117.93;;
47161;SDS011;32921;53.256;8.198;2024-03-23T02:25:49;141.57;;;132.32;;
47161;SDS011;32921;53.256;8.198;2024-03-23T02:28:15;130.15;;;121.90;;
47161;SDS011;32921;53.256;8.198;2024-03-23T02:30:41;143.77;;;134.32;;
47161;SDS011;32921;53.256;8.198;2024-03-23T02:33:07;133.20;;;124.55;;
47161;SDS011;32921;53.256;8.198;2024-03-23T02:35:33;138.40;;;128.55;;
47161;SDS011;32921;53.256;8.198;2024-03-23T02:37:58;156.18;;;145.43;;
47161;SDS011;32921;53.256;8.198;2024-03-23T02:40:24;137.32;;;128.35;;
47161;SDS011;32921;53.256;8.198;2024-03-23T02:42:50;149.95;;;140.40;;
47161;SDS011;32921;53.256;8.198;2024-03-23T02:45:16;156.60;;;146.32;;
47161;SDS011;32921;53.256;8.198;2024-03-23T02:47:42;151.48;;;141.52;;
47161;SDS011;32921;53.256;8.198;2024-03-23T02:50:07;178.55;;;166.93;;
47161;SDS011;32921;53.256;8.198;2024-03-23T02:52:34;205.10;;;191.57;;
47161;SDS011;32921;53.256;8.198;2024-03-23T02:55:00;206.60;;;192.93;;
47161;SDS011;32921;53.256;8.198;2024-03-23T02:57:27;206.40;;;193.02;;
47161;SDS011;32921;53.256;8.198;2024-03-23T02:59:53;201.70;;;188.27;;
47161;SDS011;32921;53.256;8.198;2024-03-23T03:02:18;206.48;;;192.82;;
47161;SDS011;32921;53.256;8.198;2024-03-23T03:04:45;203.98;;;190.48;;
47161;SDS011;32921;53.256;8.198;2024-03-23T03:07:10;223.43;;;208.95;;
47161;SDS011;32921;53.256;8.198;2024-03-23T03:09:36;197.95;;;185.25;;
47161;SDS011;32921;53.256;8.198;2024-03-23T03:12:04;213.30;;;199.57;;
47161;SDS011;32921;53.256;8.198;2024-03-23T03:14:30;217.13;;;203.00;;
47161;SDS011;32921;53.256;8.198;2024-03-23T03:16:56;198.75;;;185.52;;
47161;SDS011;32921;53.256;8.198;2024-03-23T03:19:21;205.18;;;191.57;;
47161;SDS011;32921;53.256;8.198;2024-03-23T03:21:47;225.15;;;210.20;;
47161;SDS011;32921;53.256;8.198;2024-03-23T03:24:13;261.45;;;244.38;;
47161;SDS011;32921;53.256;8.198;2024-03-23T03:26:38;261.58;;;244.43;;
47161;SDS011;32921;53.256;8.198;2024-03-23T03:29:04;261.83;;;244.15;;
47161;SDS011;32921;53.256;8.198;2024-03-23T03:31:30;276.48;;;257.98;;
47161;SDS011;32921;53.256;8.198;2024-03-23T03:33:56;276.60;;;258.08;;
47161;SDS011;32921;53.256;8.198;2024-03-23T03:36:21;283.40;;;264.05;;
47161;SDS011;32921;53.256;8.198;2024-03-23T03:38:47;290.27;;;269.98;;
47161;SDS011;32921;53.256;8.198;2024-03-23T03:41:12;309.92;;;288.83;;
47161;SDS011;32921;53.256;8.198;2024-03-23T03:43:38;283.50;;;264.20;;
47161;SDS011;32921;53.256;8.198;2024-03-23T03:46:04;309.88;;;288.10;;
47161;SDS011;32921;53.256;8.198;2024-03-23T03:48:29;260.95;;;242.82;;
47161;SDS011;32921;53.256;8.198;2024-03-23T03:50:55;237.60;;;219.82;;
47161;SDS011;32921;53.256;8.198;2024-03-23T03:53:20;233.10;;;217.25;;
47161;SDS011;32921;53.256;8.198;2024-03-23T03:55:46;288.02;;;268.52;;
47161;SDS011;32921;53.256;8.198;2024-03-23T03:58:12;235.20;;;219.30;;
47161;SDS011;32921;53.256;8.198;2024-03-23T04:00:38;235.48;;;219.25;;
47161;SDS011;32921;53.256;8.198;2024-03-23T04:03:03;264.42;;;245.40;;
47161;SDS011;32921;53.256;8.198;2024-03-23T04:05:29;225.35;;;210.18;;
47161;SDS011;32921;53.256;8.198;2024-03-23T04:07:55;271.33;;;252.93;;
47161;SDS011;32921;53.256;8.198;2024-03-23T04:10:21;248.68;;;232.02;;
47161;SDS011;32921;53.256;8.198;2024-03-23T04:12:47;202.77;;;189.15;;
47161;SDS011;32921;53.256;8.198;2024-03-23T04:15:13;212.75;;;197.85;;
47161;SDS011;32921;53.256;8.198;2024-03-23T04:17:39;227.20;;;211.82;;
47161;SDS011;32921;53.256;8.198;2024-03-23T04:20:07;258.05;;;239.93;;
47161;SDS011;32921;53.256;8.198;2024-03-23T04:22:36;217.05;;;202.35;;
47161;SDS011;32921;53.256;8.198;2024-03-23T04:25:02;232.43;;;216.63;;
47161;SDS011;32921;53.256;8.198;2024-03-23T04:27:34;236.32;;;220.57;;
47161;SDS011;32921;53.256;8.198;2024-03-23T04:30:00;238.93;;;222.75;;
47161;SDS011;32921;53.256;8.198;2024-03-23T04:32:26;239.77;;;223.52;;
47161;SDS011;32921;53.256;8.198;2024-03-23T04:34:53;243.10;;;226.45;;
47161;SDS011;32921;53.256;8.198;2024-03-23T04:37:19;262.33;;;244.88;;
47161;SDS011;32921;53.256;8.198;2024-03-23T04:39:45;226.95;;;211.55;;
47161;SDS011;32921;53.256;8.198;2024-03-23T04:42:11;222.15;;;207.15;;
47161;SDS011;32921;53.256;8.198;2024-03-23T04:44:37;276.33;;;257.63;;
47161;SDS011;32921;53.256;8.198;2024-03-23T04:47:03;246.63;;;229.85;;
47161;SDS011;32921;53.256;8.198;2024-03-23T04:49:30;236.10;;;220.25;;
47161;SDS011;32921;53.256;8.198;2024-03-23T04:51:56;238.50;;;222.93;;
47161;SDS011;32921;53.256;8.198;2024-03-23T04:54:21;236.27;;;220.30;;
47161;SDS011;32921;53.256;8.198;2024-03-23T04:56:47;247.27;;;231.05;;
47161;SDS011;32921;53.256;8.198;2024-03-23T04:59:12;246.70;;;230.43;;
47161;SDS011;32921;53.256;8.198;2024-03-23T05:01:38;263.17;;;246.05;;
47161;SDS011;32921;53.256;8.198;2024-03-23T05:04:06;261.30;;;244.27;;
47161;SDS011;32921;53.256;8.198;2024-03-23T05:06:32;261.92;;;245.00;;
47161;SDS011;32921;53.256;8.198;2024-03-23T05:08:59;199.15;;;186.43;;
47161;SDS011;32921;53.256;8.198;2024-03-23T05:11:26;225.73;;;211.65;;
47161;SDS011;32921;53.256;8.198;2024-03-23T05:13:52;262.63;;;246.07;;
47161;SDS011;32921;53.256;8.198;2024-03-23T05:16:17;213.65;;;200.30;;
47161;SDS011;32921;53.256;8.198;2024-03-23T05:18:43;262.25;;;245.85;;
47161;SDS011;32921;53.256;8.198;2024-03-23T05:21:08;251.95;;;236.65;;
47161;SDS011;32921;53.256;8.198;2024-03-23T05:23:34;240.13;;;224.23;;
47161;SDS011;32921;53.256;8.198;2024-03-23T05:26:00;233.73;;;219.50;;
47161;SDS011;32921;53.256;8.198;2024-03-23T05:28:26;233.15;;;218.88;;
47161;SDS011;32921;53.256;8.198;2024-03-23T05:30:54;235.73;;;221.27;;
47161;SDS011;32921;53.256;8.198;2024-03-23T05:33:21;237.93;;;223.50;;
47161;SDS011;32921;53.256;8.198;2024-03-23T05:35:55;234.52;;;220.30;;
47161;SDS011;32921;53.256;8.198;2024-03-23T05:38:21;213.48;;;200.57;;
47161;SDS011;32921;53.256;8.198;2024-03-23T05:40:54;220.55;;;207.35;;
47161;SDS011;32921;53.256;8.198;2024-03-23T05:43:20;276.65;;;259.83;;
47161;SDS011;32921;53.256;8.198;2024-03-23T05:45:52;237.25;;;223.00;;
47161;SDS011;32921;53.256;8.198;2024-03-23T05:48:22;222.00;;;208.75;;
47161;SDS011;32921;53.256;8.198;2024-03-23T05:50:48;241.50;;;226.80;;
47161;SDS011;32921;53.256;8.198;2024-03-23T05:53:17;228.63;;;210.27;;
47161;SDS011;32921;53.256;8.198;2024-03-23T05:55:43;205.13;;;192.02;;
47161;SDS011;32921;53.256;8.198;2024-03-23T05:58:09;200.38;;;188.25;;
47161;SDS011;32921;53.256;8.198;2024-03-23T06:00:35;217.75;;;204.48;;
47161;SDS011;32921;53.256;8.198;2024-03-23T06:03:00;237.00;;;222.25;;
47161;SDS011;32921;53.256;8.198;2024-03-23T06:05:26;209.18;;;195.50;;
47161;SDS011;32921;53.256;8.198;2024-03-23T06:07:52;207.73;;;194.85;;
47161;SDS011;32921;53.256;8.198;2024-03-23T06:10:18;217.90;;;204.63;;
47161;SDS011;32921;53.256;8.198;2024-03-23T06:12:45;217.52;;;204.05;;
47161;SDS011;32921;53.256;8.198;2024-03-23T06:15:11;217.70;;;204.52;;
47161;SDS011;32921;53.256;8.198;2024-03-23T06:17:37;215.68;;;202.52;;
47161;SDS011;32921;53.256;8.198;2024-03-23T06:20:03;190.52;;;178.70;;
47161;SDS011;32921;53.256;8.198;2024-03-23T06:22:31;206.27;;;193.65;;
47161;SDS011;32921;53.256;8.198;2024-03-23T06:24:57;199.57;;;187.35;;
47161;SDS011;32921;53.256;8.198;2024-03-23T06:27:23;202.65;;;190.20;;
47161;SDS011;32921;53.256;8.198;2024-03-23T06:29:48;192.20;;;180.48;;
47161;SDS011;32921;53.256;8.198;2024-03-23T06:32:14;202.35;;;190.05;;
47161;SDS011;32921;53.256;8.198;2024-03-23T06:34:42;211.45;;;198.20;;
47161;SDS011;32921;53.256;8.198;2024-03-23T06:37:08;185.43;;;173.55;;
47161;SDS011;32921;53.256;8.198;2024-03-23T06:39:37;183.40;;;172.18;;
47161;SDS011;32921;53.256;8.198;2024-03-23T06:42:03;172.27;;;161.55;;
47161;SDS011;32921;53.256;8.198;2024-03-23T06:44:29;193.13;;;180.88;;
47161;SDS011;32921;53.256;8.198;2024-03-23T06:46:55;174.68;;;163.93;;
47161;SDS011;32921;53.256;8.198;2024-03-23T06:49:21;171.52;;;160.63;;
47161;SDS011;32921;53.256;8.198;2024-03-23T06:51:47;186.25;;;174.32;;
47161;SDS011;32921;53.256;8.198;2024-03-23T06:54:13;181.82;;;169.65;;
47161;SDS011;32921;53.256;8.198;2024-03-23T06:56:38;174.38;;;162.80;;
47161;SDS011;32921;53.256;8.198;2024-03-23T06:59:04;217.65;;;202.70;;
47161;SDS011;32921;53.256;8.198;2024-03-23T07:01:30;234.32;;;218.32;;
47161;SDS011;32921;53.256;8.198;2024-03-23T07:03:55;270.42;;;252.13;;
47161;SDS011;32921;53.256;8.198;2024-03-23T07:06:21;275.17;;;255.95;;
47161;SDS011;32921;53.256;8.198;2024-03-23T07:08:46;291.77;;;271.65;;
47161;SDS011;32921;53.256;8.198;2024-03-23T07:11:17;299.70;;;279.35;;
47161;SDS011;32921;53.256;8.198;2024-03-23T07:13:49;310.08;;;289.60;;
47161;SDS011;32921;53.256;8.198;2024-03-23T07:16:15;355.55;;;332.02;;
47161;SDS011;32921;53.256;8.198;2024-03-23T07:18:41;381.13;;;355.92;;
47161;SDS011;32921;53.256;8.198;2024-03-23T07:21:07;366.92;;;342.33;;
47161;SDS011;32921;53.256;8.198;2024-03-23T07:23:33;372.42;;;347.33;;
47161;SDS011;32921;53.256;8.198;2024-03-23T07:25:59;326.25;;;304.23;;
47161;SDS011;32921;53.256;8.198;2024-03-23T07:28:27;296.67;;;275.98;;
47161;SDS011;32921;53.256;8.198;2024-03-23T07:33:28;238.55;;;221.95;;
47161;SDS011;32921;53.256;8.198;2024-03-23T07:35:54;196.73;;;182.88;;
47161;SDS011;32921;53.256;8.198;2024-03-23T07:38:20;157.95;;;146.93;;
47161;SDS011;32921;53.256;8.198;2024-03-23T07:40:45;167.05;;;155.93;;
47161;SDS011;32921;53.256;8.198;2024-03-23T07:43:11;179.93;;;168.05;;
47161;SDS011;32921;53.256;8.198;2024-03-23T07:45:37;159.57;;;149.38;;
47161;SDS011;32921;53.256;8.198;2024-03-23T07:48:03;155.68;;;145.73;;
47161;SDS011;32921;53.256;8.198;2024-03-23T07:50:29;149.65;;;139.80;;
47161;SDS011;32921;53.256;8.198;2024-03-23T07:52:54;144.30;;;134.02;;
47161;SDS011;32921;53.256;8.198;2024-03-23T07:55:20;185.95;;;170.00;;
47161;SDS011;32921;53.256;8.198;2024-03-23T07:57:46;155.00;;;145.10;;
47161;SDS011;32921;53.256;8.198;2024-03-23T08:00:12;222.57;;;207.18;;
47161;SDS011;32921;53.256;8.198;2024-03-23T08:02:39;404.23;;;373.23;;
47161;SDS011;32921;53.256;8.198;2024-03-23T08:05:05;402.70;;;371.10;;
47161;SDS011;32921;53.256;8.198;2024-03-23T08:07:30;436.92;;;402.58;;
47161;SDS011;32921;53.256;8.198;2024-03-23T08:09:56;429.33;;;395.80;;
47161;SDS011;32921;53.256;8.198;2024-03-23T08:12:24;446.58;;;412.70;;
47161;SDS011;32921;53.256;8.198;2024-03-23T08:14:49;494.10;;;457.70;;
47161;SDS011;32921;53.256;8.198;2024-03-23T08:17:15;497.35;;;458.52;;
47161;SDS011;32921;53.256;8.198;2024-03-23T08:19:40;608.95;;;556.70;;
47161;SDS011;32921;53.256;8.198;2024-03-23T08:22:06;662.53;;;603.35;;
47161;SDS011;32921;53.256;8.198;2024-03-23T08:24:31;623.65;;;565.22;;
47161;SDS011;32921;53.256;8.198;2024-03-23T08:26:57;658.15;;;597.20;;
47161;SDS011;32921;53.256;8.198;2024-03-23T08:29:23;575.55;;;524.10;;
47161;SDS011;32921;53.256;8.198;2024-03-23T08:31:48;639.13;;;581.03;;
47161;SDS011;32921;53.256;8.198;2024-03-23T08:34:14;558.60;;;510.52;;
47161;SDS011;32921;53.256;8.198;2024-03-23T08:36:39;586.13;;;534.55;;
47161;SDS011;32921;53.256;8.198;2024-03-23T08:39:05;608.08;;;553.72;;
47161;SDS011;32921;53.256;8.198;2024-03-23T08:41:30;538.45;;;492.98;;
47161;SDS011;32921;53.256;8.198;2024-03-23T08:43:56;577.88;;;529.13;;
47161;SDS011;32921;53.256;8.198;2024-03-23T08:46:21;531.30;;;486.17;;
47161;SDS011;32921;53.256;8.198;2024-03-23T08:48:47;502.52;;;460.27;;
47161;SDS011;32921;53.256;8.198;2024-03-23T08:51:15;499.88;;;459.17;;
47161;SDS011;32921;53.256;8.198;2024-03-23T08:53:41;400.17;;;369.92;;
47161;SDS011;32921;53.256;8.198;2024-03-23T08:56:08;407.23;;;375.25;;
47161;SDS011;32921;53.256;8.198;2024-03-23T08:58:35;373.77;;;345.60;;
47161;SDS011;32921;53.256;8.198;2024-03-23T09:01:08;367.52;;;339.40;;
47161;SDS011;32921;53.256;8.198;2024-03-23T09:03:34;384.38;;;355.45;;
47161;SDS011;32921;53.256;8.198;2024-03-23T09:06:02;403.88;;;373.33;;
47161;SDS011;32921;53.256;8.198;2024-03-23T09:08:32;407.88;;;376.85;;
47161;SDS011;32921;53.256;8.198;2024-03-23T09:10:57;369.98;;;342.48;;
47161;SDS011;32921;53.256;8.198;2024-03-23T09:13:28;342.75;;;316.77;;
47161;SDS011;32921;53.256;8.198;2024-03-23T09:15:53;354.63;;;327.00;;
47161;SDS011;32921;53.256;8.198;2024-03-23T09:18:22;385.50;;;352.90;;
47161;SDS011;32921;53.256;8.198;2024-03-23T09:20:49;401.58;;;369.45;;
47161;SDS011;32921;53.256;8.198;2024-03-23T09:23:14;378.13;;;348.25;;
47161;SDS011;32921;53.256;8.198;2024-03-23T09:25:40;358.30;;;329.95;;
47161;SDS011;32921;53.256;8.198;2024-03-23T09:28:06;333.75;;;307.55;;
47161;SDS011;32921;53.256;8.198;2024-03-23T09:30:33;374.63;;;344.67;;
47161;SDS011;32921;53.256;8.198;2024-03-23T09:33:00;348.92;;;321.52;;
47161;SDS011;32921;53.256;8.198;2024-03-23T09:35:26;349.08;;;322.52;;
47161;SDS011;32921;53.256;8.198;2024-03-23T09:37:52;421.20;;;387.73;;
47161;SDS011;32921;53.256;8.198;2024-03-23T09:40:17;468.85;;;431.52;;
47161;SDS011;32921;53.256;8.198;2024-03-23T09:42:43;446.65;;;412.05;;
47161;SDS011;32921;53.256;8.198;2024-03-23T09:45:22;409.73;;;377.85;;
47161;SDS011;32921;53.256;8.198;2024-03-23T09:47:52;483.52;;;445.48;;
47161;SDS011;32921;53.256;8.198;2024-03-23T09:50:18;540.50;;;499.08;;
47161;SDS011;32921;53.256;8.198;2024-03-23T09:52:45;671.92;;;621.17;;
47161;SDS011;32921;53.256;8.198;2024-03-23T09:55:11;705.67;;;650.80;;
47161;SDS011;32921;53.256;8.198;2024-03-23T09:57:38;724.55;;;668.28;;
47161;SDS011;32921;53.256;8.198;2024-03-23T10:00:05;741.80;;;682.83;;
47161;SDS011;32921;53.256;8.198;2024-03-23T10:02:31;739.80;;;680.45;;
47161;SDS011;32921;53.256;8.198;2024-03-23T10:04:57;749.60;;;688.92;;
47161;SDS011;32921;53.256;8.198;2024-03-23T10:07:23;770.88;;;706.42;;
47161;SDS011;32921;53.256;8.198;2024-03-23T10:09:53;771.30;;;705.47;;
47161;SDS011;32921;53.256;8.198;2024-03-23T10:12:19;785.47;;;716.88;;
47161;SDS011;32921;53.256;8.198;2024-03-23T10:14:45;741.95;;;674.97;;
47161;SDS011;32921;53.256;8.198;2024-03-23T10:17:19;730.78;;;661.97;;
47161;SDS011;32921;53.256;8.198;2024-03-23T10:19:49;824.08;;;743.63;;
47161;SDS011;32921;53.256;8.198;2024-03-23T10:22:19;746.85;;;675.40;;
47161;SDS011;32921;53.256;8.198;2024-03-23T10:24:46;773.08;;;697.17;;
47161;SDS011;32921;53.256;8.198;2024-03-23T10:27:16;789.50;;;711.38;;
47161;SDS011;32921;53.256;8.198;2024-03-23T10:29:44;849.80;;;766.22;;
47161;SDS011;32921;53.256;8.198;2024-03-23T10:32:13;840.10;;;761.58;;
47161;SDS011;32921;53.256;8.198;2024-03-23T10:34:40;831.15;;;757.42;;
47161;SDS011;32921;53.256;8.198;2024-03-23T10:37:06;789.47;;;721.45;;
47161;SDS011;32921;53.256;8.198;2024-03-23T10:39:36;781.92;;;717.30;;
47161;SDS011;32921;53.256;8.198;2024-03-23T10:42:06;578.83;;;534.47;;
47161;SDS011;32921;53.256;8.198;2024-03-23T10:44:37;315.92;;;291.05;;
47161;SDS011;32921;53.256;8.198;2024-03-23T10:47:03;275.35;;;254.35;;
47161;SDS011;32921;53.256;8.198;2024-03-23T10:49:33;278.70;;;256.73;;
47161;SDS011;32921;53.256;8.198;2024-03-23T10:52:00;387.35;;;357.65;;
47161;SDS011;32921;53.256;8.198;2024-03-23T10:54:31;506.45;;;466.60;;
47161;SDS011;32921;53.256;8.198;2024-03-23T10:57:04;579.47;;;533.72;;
47161;SDS011;32921;53.256;8.198;2024-03-23T10:59:36;587.45;;;539.88;;
47161;SDS011;32921;53.256;8.198;2024-03-23T11:02:03;615.95;;;566.10;;
47161;SDS011;32921;53.256;8.198;2024-03-23T11:04:36;590.78;;;543.20;;
47161;SDS011;32921;53.256;8.198;2024-03-23T11:09:49;681.45;;;625.92;;
47161;SDS011;32921;53.256;8.198;2024-03-23T11:14:50;648.53;;;589.15;;
47161;SDS011;32921;53.256;8.198;2024-03-23T11:17:20;718.85;;;651.30;;
47161;SDS011;32921;53.256;8.198;2024-03-23T11:19:57;732.30;;;662.60;;
47161;SDS011;32921;53.256;8.198;2024-03-23T11:25:18;727.42;;;657.83;;
47161;SDS011;32921;53.256;8.198;2024-03-23T11:27:55;717.00;;;645.85;;
47161;SDS011;32921;53.256;8.198;2024-03-23T11:30:35;782.83;;;704.05;;
47161;SDS011;32921;53.256;8.198;2024-03-23T11:33:03;829.53;;;746.35;;
47161;SDS011;32921;53.256;8.198;2024-03-23T11:35:30;1111.13;;;896.90;;
47161;SDS011;32921;53.256;8.198;2024-03-23T11:38:04;842.75;;;766.90;;
47161;SDS011;32921;53.256;8.198;2024-03-23T11:40:38;532.67;;;489.98;;
47161;SDS011;32921;53.256;8.198;2024-03-23T11:43:06;515.28;;;475.23;;
47161;SDS011;32921;53.256;8.198;2024-03-23T11:45:36;511.35;;;471.00;;
47161;SDS011;32921;53.256;8.198;2024-03-23T11:48:11;477.38;;;439.00;;
47161;SDS011;32921;53.256;8.198;2024-03-23T11:50:43;492.20;;;453.77;;
47161;SDS011;32921;53.256;8.198;2024-03-23T11:55:48;492.15;;;454.58;;
47161;SDS011;32921;53.256;8.198;2024-03-23T11:58:16;523.47;;;483.75;;
47161;SDS011;32921;53.256;8.198;2024-03-23T12:00:52;407.02;;;375.88;;
47161;SDS011;32921;53.256;8.198;2024-03-23T12:03:18;255.95;;;237.60;;
47161;SDS011;32921;53.256;8.198;2024-03-23T12:05:49;146.75;;;135.70;;
47161;SDS011;32921;53.256;8.198;2024-03-23T12:08:51;139.90;;;130.10;;
47161;SDS011;32921;53.256;8.198;2024-03-23T12:11:13;120.65;;;112.10;;
47161;SDS011;32921;53.256;8.198;2024-03-23T12:13:41;147.32;;;136.85;;
47161;SDS011;32921;53.256;8.198;2024-03-23T12:16:10;121.05;;;112.85;;
47161;SDS011;32921;53.256;8.198;2024-03-23T12:18:36;144.38;;;134.90;;
47161;SDS011;32921;53.256;8.198;2024-03-23T12:21:02;179.57;;;167.90;;
47161;SDS011;32921;53.256;8.198;2024-03-23T12:23:28;270.13;;;251.48;;
47161;SDS011;32921;53.256;8.198;2024-03-23T12:25:54;412.88;;;379.55;;
47161;SDS011;32921;53.256;8.198;2024-03-23T12:28:19;579.22;;;526.97;;
47161;SDS011;32921;53.256;8.198;2024-03-23T12:30:45;638.78;;;578.53;;
47161;SDS011;32921;53.256;8.198;2024-03-23T12:33:10;452.65;;;414.60;;
47161;SDS011;32921;53.256;8.198;2024-03-23T12:35:36;286.58;;;265.75;;
47161;SDS011;32921;53.256;8.198;2024-03-23T12:38:02;251.80;;;233.20;;
47161;SDS011;32921;53.256;8.198;2024-03-23T12:40:27;351.92;;;324.98;;
47161;SDS011;32921;53.256;8.198;2024-03-23T12:42:53;357.08;;;329.60;;
47161;SDS011;32921;53.256;8.198;2024-03-23T12:45:19;388.10;;;357.88;;
47161;SDS011;32921;53.256;8.198;2024-03-23T12:47:45;384.92;;;355.55;;
47161;SDS011;32921;53.256;8.198;2024-03-23T12:50:10;330.02;;;305.90;;
47161;SDS011;32921;53.256;8.198;2024-03-23T12:52:36;381.20;;;346.98;;
47161;SDS011;32921;53.256;8.198;2024-03-23T12:55:02;241.52;;;224.82;;
47161;SDS011;32921;53.256;8.198;2024-03-23T12:57:32;165.23;;;154.27;;
47161;SDS011;32921;53.256;8.198;2024-03-23T12:59:58;129.68;;;121.07;;
47161;SDS011;32921;53.256;8.198;2024-03-23T13:02:24;149.93;;;139.48;;
47161;SDS011;32921;53.256;8.198;2024-03-23T13:04:50;183.90;;;171.93;;
47161;SDS011;32921;53.256;8.198;2024-03-23T13:07:18;205.07;;;191.10;;
47161;SDS011;32921;53.256;8.198;2024-03-23T13:09:45;263.40;;;245.00;;
47161;SDS011;32921;53.256;8.198;2024-03-23T13:12:10;357.35;;;329.77;;
47161;SDS011;32921;53.256;8.198;2024-03-23T13:14:37;396.45;;;363.17;;
47161;SDS011;32921;53.256;8.198;2024-03-23T13:17:06;467.17;;;426.48;;
47161;SDS011;32921;53.256;8.198;2024-03-23T13:19:32;527.25;;;479.55;;
47161;SDS011;32921;53.256;8.198;2024-03-23T13:21:58;572.63;;;519.78;;
47161;SDS011;32921;53.256;8.198;2024-03-23T13:24:25;669.88;;;607.90;;
47161;SDS011;32921;53.256;8.198;2024-03-23T13:26:52;643.42;;;587.38;;
47161;SDS011;32921;53.256;8.198;2024-03-23T13:29:19;504.48;;;462.23;;
47161;SDS011;32921;53.256;8.198;2024-03-23T13:31:45;303.55;;;276.60;;
47161;SDS011;32921;53.256;8.198;2024-03-23T13:34:15;326.95;;;300.20;;
47161;SDS011;32921;53.256;8.198;2024-03-23T13:36:44;396.77;;;366.48;;
47161;SDS011;32921;53.256;8.198;2024-03-23T13:39:11;482.25;;;446.50;;
47161;SDS011;32921;53.256;8.198;2024-03-23T13:41:40;551.72;;;510.33;;
47161;SDS011;32921;53.256;8.198;2024-03-23T13:44:07;555.38;;;510.92;;
47161;SDS011;32921;53.256;8.198;2024-03-23T13:46:35;545.25;;;497.65;;
47161;SDS011;32921;53.256;8.198;2024-03-23T13:49:01;543.15;;;493.60;;
47161;SDS011;32921;53.256;8.198;2024-03-23T13:51:26;602.95;;;549.65;;
47161;SDS011;32921;53.256;8.198;2024-03-23T13:53:53;673.55;;;615.20;;
47161;SDS011;32921;53.256;8.198;2024-03-23T13:56:19;654.95;;;601.50;;
47161;SDS011;32921;53.256;8.198;2024-03-23T13:58:46;613.63;;;564.50;;
47161;SDS011;32921;53.256;8.198;2024-03-23T14:01:15;611.65;;;564.47;;
47161;SDS011;32921;53.256;8.198;2024-03-23T14:03:41;576.95;;;532.42;;
47161;SDS011;32921;53.256;8.198;2024-03-23T14:06:07;558.13;;;516.17;;
47161;SDS011;32921;53.256;8.198;2024-03-23T14:08:37;534.50;;;495.02;;
47161;SDS011;32921;53.256;8.198;2024-03-23T14:11:06;563.97;;;522.20;;
47161;SDS011;32921;53.256;8.198;2024-03-23T14:13:35;582.00;;;538.70;;
47161;SDS011;32921;53.256;8.198;2024-03-23T14:16:02;581.47;;;538.38;;
47161;SDS011;32921;53.256;8.198;2024-03-23T14:18:27;621.67;;;574.53;;
47161;SDS011;32921;53.256;8.198;2024-03-23T14:20:59;617.20;;;570.00;;
47161;SDS011;32921;53.256;8.198;2024-03-23T14:23:26;659.88;;;606.58;;
47161;SDS011;32921;53.256;8.198;2024-03-23T14:25:54;647.72;;;592.47;;
47161;SDS011;32921;53.256;8.198;2024-03-23T14:28:21;697.72;;;636.10;;
47161;SDS011;32921;53.256;8.198;2024-03-23T14:30:50;716.38;;;653.13;;
47161;SDS011;32921;53.256;8.198;2024-03-23T14:33:16;744.28;;;677.42;;
47161;SDS011;32921;53.256;8.198;2024-03-23T14:35:43;727.85;;;662.58;;
47161;SDS011;32921;53.256;8.198;2024-03-23T14:38:08;728.30;;;663.17;;
47161;SDS011;32921;53.256;8.198;2024-03-23T14:40:34;722.72;;;658.58;;
47161;SDS011;32921;53.256;8.198;2024-03-23T14:43:00;693.97;;;632.60;;
47161;SDS011;32921;53.256;8.198;2024-03-23T14:45:26;708.00;;;645.40;;
47161;SDS011;32921;53.256;8.198;2024-03-23T14:47:52;681.42;;;618.95;;
47161;SDS011;32921;53.256;8.198;2024-03-23T14:50:18;733.33;;;664.67;;
47161;SDS011;32921;53.256;8.198;2024-03-23T14:52:44;709.67;;;643.38;;
47161;SDS011;32921;53.256;8.198;2024-03-23T14:55:10;653.40;;;591.63;;
47161;SDS011;32921;53.256;8.198;2024-03-23T14:57:36;596.58;;;541.45;;
47161;SDS011;32921;53.256;8.198;2024-03-23T15:00:04;646.22;;;585.47;;
47161;SDS011;32921;53.256;8.198;2024-03-23T15:02:35;709.30;;;641.17;;